Williana, Louisiana
Current Conditions -  °F | °C
As of 8:53 PM on Wednesday 22 Oct 2014 (Local Time) from KAEX Reporting Station
Clear Clear  
Wind Chill: 16°   Ceiling: Unl
Heat Index: 16°   Visibility: 10mi
Dew Point: 12°   Wind: 6mph
Humidity: 78%   Direction: 20°NNE
Pressure: 30.09"   Gusts: NA
Location:  31.6531°N, 92.5571°W
Report Text: KAEX 230153Z 02005KT 10SM CLR 16/12 A3009 RMK AO2 SLP192 T01610122
Loading
Personal Weather Stations






























Interactive Weather Map
Tropical Storm Tracking
New forecast layout! Learn more

10-Day Weather Forecast

Advertisements
Track Severe Weather on mobile